Aviation Digital Data Service (ADDS)

Output produced by TAFs form (0929 UTC 25 November 2017)
found at http://www.aviationweather.gov/adds/tafs/
 
KPIT 250851Z 21009G18KT 10SM SCT090 BKN220 09/M03 A2970 RMK AO2 SLP066 T00941033 58009
KPIT 250856Z 2509/2612 21008G16KT P6SM BKN100 WS020/24040KT 
     FM251400 23010KT P6SM BKN080 
     FM251800 25010G18KT P6SM BKN035 
     FM252100 29010KT P6SM VCSH BKN022
       
KBVI 250520Z 2506/2606 19008KT P6SM BKN200 WS020/23040KT 
     FM251400 23010KT P6SM BKN100 
     FM251700 25010G18KT P6SM BKN025 
     FM252000 29010KT P6SM BKN022 AMD NOT SKED
       
KFKL 250856Z AUTO 20013KT 10SM BKN100 08/M04 A2965 RMK AO2 SLP045 6//// T00781039 58015
KFKL 250520Z 2506/2606 19012KT P6SM BKN200 WS020/23040KT 
     FM251400 23010KT P6SM BKN050 
     FM251700 25010G18KT P6SM BKN020 
     FM252000 28010KT P6SM VCSH BKN015 
     FM260200 30008G16KT P6SM VCSH BKN012
       
KERI 250851Z 20017G25KT 10SM CLR 11/M03 A2959 RMK AO2 PK WND 19032/0806 SLP022 T01111033 58000
KERI 250539Z 2506/2606 19018G30KT P6SM BKN250 
     FM251400 24014G24KT P6SM BKN070 
     FM251600 26012G20KT P6SM VCSH OVC025 
     FM251900 29012G20KT P6SM -SHRA OVC015 
     FM252300 30012G20KT P6SM VCSH OVC025 
     FM260500 31016G25KT P6SM BKN035